TOP > 外国特許検索

外国特許検索

表示件数 詳細検索
特許の状態
出願国

リセット

該当件数 4717件

No. 出願番号
公報番号
出願国
発明の名称
掲載日
更新日
データ提供機関
901 2008JP073572 WO 2009/087908 世界知的所有権機関(WIPO) METHOD OF RECYCLING USEFUL METAL 新技術説明会 2011/01/05 2011/01/19 芝浦工業大学
902 2010JP067530 WO 2011/043369 世界知的所有権機関(WIPO) WATER-SOLUBLE PORPHYRIN AND PROCESS FOR PRODUCTION THEREOF 新技術説明会 2011/01/06 2011/04/21 宮崎大学
903 2008JP059681 WO 2008/149712 世界知的所有権機関(WIPO) DISTORTION INSPECTING APPARATUS AND DISTORTION INSPECTING METHOD 新技術説明会 2011/01/12 2011/01/19 宮崎大学
904 2009JP061665 WO 2009/154308 世界知的所有権機関(WIPO) ELECTRODE 2011/01/12 2011/05/23 宮崎大学
905 2008JP002335 WO 2009/028186 世界知的所有権機関(WIPO) ELECTROMAGNETIC FIELD SPACE DISTRIBUTION VISUALIZING DEVICE, ELECTROMAGNETIC FIELD SPACE DISTRIBUTION VISUALIZING METHOD, AND PROGRAM THEREOF 新技術説明会 2011/01/12 2011/01/19 金沢大TLO
906 2009JP003429 WO 2010/013408 世界知的所有権機関(WIPO) RADIO FIELD STRENGTH MEASURING DEVICE AND RADIO FIELD STRENGTH MEASURING SYSTEM 新技術説明会 2011/01/12 2011/01/19 金沢大TLO
907 2008JP061243 WO 2008/156139 世界知的所有権機関(WIPO) PROTEIN ANALYSIS METHOD USING ISOTOPE COMPOUND AS LABEL 新技術説明会 2011/01/13 2011/01/19 福井大学
908 2008JP072942 WO 2009/078423 世界知的所有権機関(WIPO) FUSED TRICYCLIC COMPOUND HAVING ALDOSE REDUCTASE INHIBITORY ACTIVITY 新技術説明会 2011/01/13 2011/01/19 富山大学
909 2008JP073175 WO 2009081854 世界知的所有権機関(WIPO) BIOMARKER FOR ALLERGIC DISEASE AND UTILIZATION OF THE SAME 2011/01/13 2019/04/22 富山大学
910 2008JP055132 WO 2008/114829 世界知的所有権機関(WIPO) ENCRYPTION DEVICE, DECRYPTION DEVICE, ENCRYPTION PROGRAM, DECRYPTION PROGRAM, AND RECORDING MEDIUM 2011/01/13 2011/01/19 東京電機大学
911 2008JP069306 WO 2009/057517 世界知的所有権機関(WIPO) INTERPOLATION PROCESSING METHOD AND INTERPOLATION PROCESSOR 2011/01/17 2011/01/19 横浜国立大学
912 2009JP053252 WO 2009/142037 世界知的所有権機関(WIPO) APPROXIMATION PROCESSING METHOD AND APPROXIMATION PROCESSING DEVICE 2011/01/17 2011/01/19 横浜国立大学
913 2008JP001394 WO 2008/149542 世界知的所有権機関(WIPO) METHOD FOR PRODUCTION OF DHA-CONTAINING PHOSPHOLIPID THROUGH MICROBIAL FERMENTATION 新技術説明会 2011/01/20 2011/02/16 北海道大学
914 2010JP001867 WO 2010/106794 世界知的所有権機関(WIPO) SYSTEM FOR ANALYZING EXPRESSION PROFILE AND PROGRAM THEREOF 2011/01/20 2011/02/16 明治大学
915 2007JP067745 WO 2008/041457 世界知的所有権機関(WIPO) MASSAGE ROBOT, CONTROL PROGRAM THEREFOR, AND ROBOT FOR SPECIFYING PORTION OF HUMAN BODY 2011/02/03 2011/02/16 早稲田大学
916 2008JP052509 WO 2008/099915 世界知的所有権機関(WIPO) ROAD/FEATURE MEASURING DEVICE, FEATURE IDENTIFYING DEVICE, ROAD/FEATURE MEASURING METHOD, ROAD/FEATURE MEASURING PROGRAM, MEASURING DEVICE, MEASURING METHOD, MEASURING PROGRAM, MEASURED POSITION DATA, MEASURING TERMINAL, MEASURING SERVER DEVICE, DRAWING DEVICE, DRAWING METHOD, DRAWING PROGRAM, AND DRAWING DATA 2011/02/03 2011/02/16 早稲田大学
917 2005JP002821 WO 2005/079661 世界知的所有権機関(WIPO) APPARENT CHEMICAL SPECIES MEASURING METHOD AND MEASURING SYSTEM 2011/02/03 2011/02/16 早稲田大学
918 2006JP310372 WO 2006/134759 世界知的所有権機関(WIPO) SENTENCE EVALUATING DEVICE AND SENTENCE EVALUATING PROGRAM 2011/02/03 2011/02/16 早稲田大学
919 2009JP051533 WO 2009/096504 世界知的所有権機関(WIPO) MICRO VACUUM GAUGE 2011/02/09 2011/02/16 立命館大学
920 2010JP053374 WO 2010/098492 世界知的所有権機関(WIPO) ACTIVATED METAL SALT FLOCCULANT AND PROCESS FOR PRODUCING SAME 実績あり 2011/03/01 2011/03/22 山口TLO
921 2010JP063296 WO 2011/016520 世界知的所有権機関(WIPO) ELECTROSTATIC SORTING APPARATUS 2011/03/03 2011/03/18 芝浦工業大学
922 2007JP056839 WO 2007/114238 世界知的所有権機関(WIPO) APPARATUS FOR DETERMINING BRAIN ATROPHY, METHOD OF DETERMINING BRAIN ATROPHY AND PROGRAM FOR DETERMINING BRAIN ATROPHY 2011/03/04 2011/03/22 浜松医科大学
923 2007JP055617 WO 2007/111193 世界知的所有権機関(WIPO) METHOD OF QUANTIFYING OXIDIZED PROTEIN, LABELING REAGENTS FOR QUANTIFYING OXIDIZED PROTEIN AND LABELING REAGENT KIT FOR QUANTIFYING OXIDIZED PROTEIN 2011/03/04 2011/05/23 北陸先端科学技術大学院大学
924 2007JP000409 WO 2007/122814 世界知的所有権機関(WIPO) MULTIWELL INCUBATION APPARATUS AND METHOD OF ANALYSIS USING THE SAME 2011/03/04 2011/03/22 情報・システム研究機構 国立遺伝学研究所
925 2009JP064053 WO 2010/016587 世界知的所有権機関(WIPO) METHOD FOR EVALUATING SPECIFIC INCORPORATION OF D-GLUCOSE INTO CELLS 2011/03/04 2011/03/18 弘前大学
926 2006JP325084 WO 2007/069736 世界知的所有権機関(WIPO) METHOD OF EVALUATING TREE BODY PRODUCTION POWER, IMAGING DEVICE FOR EVALUATING TREE BODY PRODUCTION POWER AND PROGRAM FOR EVALUATING TREE BODY PRODUCTION POWER 新技術説明会 2011/03/04 2011/03/22 山口TLO
927 2006JP300806 WO 2006/090538 世界知的所有権機関(WIPO) SYSTEM STABILITY CONTROL METHOD AND SYSTEM FOR ELECTRIC POWER SYSTEM 新技術説明会 実績あり 2011/03/07 2011/03/22 九州工業大学
928 2007JP061173 WO 2007/142133 世界知的所有権機関(WIPO) DISCHARGE PREVENTION DEVICE 2011/03/07 2011/03/22 九州工業大学
929 2008JP051318 WO 2008/120488 世界知的所有権機関(WIPO) ELECTRONIC CIRCUIT DEVICE 実績あり 2011/03/07 2011/03/22 九州工業大学
930 2008JP054308 WO 2008/126548 世界知的所有権機関(WIPO) METHOD FOR EVALUATING SRAM MEMORY CELL AND MEDIUM RECORDING EVALUATION PROGRAM OF SRAM MEMORY CELL COMPUTER READABLY 実績あり 2011/03/07 2011/03/22 九州工業大学
931 2005JP007813 WO 2005/105775 世界知的所有権機関(WIPO) METHOD OF RECOVERING LACTIDE FROM POLYLACTIC ACID OR DERIVATIVE THEREOF 新技術説明会 実績あり 2011/03/07 2011/03/22 九州工業大学
932 2005JP011026 WO 2005/125013 世界知的所有権機関(WIPO) OPTICALLY RECONFIGURABLE GATE ARRAY WRITE STATE INSPECTION METHOD, WRITE STATE INSPECTION DEVICE, AND OPTICALLY RECONFIGURABLE GATE ARRAY 実績あり 2011/03/07 2011/05/25 九州工業大学
933 2005JP012541 WO 2006/016455 世界知的所有権機関(WIPO) EUROPIUM DIKETONE CHELATE COMPOUND AND FLUORESCENT MATERIAL USING SAME 実績あり 2011/03/08 2011/03/22 九州工業大学
934 2005JP014811 WO 2006/019043 世界知的所有権機関(WIPO) POROUS SHEET MEMBER FOR CELL CULTURE AND, UTILIZING THE SAME, BIOREACTOR AND CULTURING METHOD 2011/03/08 2011/03/22 九州工業大学
935 2007JP054100 WO 2007/113964 世界知的所有権機関(WIPO) MULTI-STAGE LOGIC RECONFIGURATION DEVICE AND RECONFIGURATION METHOD, LOGIC CIRCUIT CORRECTION DEVICE, AND RECONFIGURABLE MULTI-STAGE LOGIC CIRCUIT 実績あり 2011/03/08 2011/03/23 九州工業大学
936 2007JP056497 WO 2007/119539 世界知的所有権機関(WIPO) ADDRESS GENERATOR 実績あり 2011/03/08 2011/03/23 九州工業大学
937 2007JP056498 WO 2007/119540 世界知的所有権機関(WIPO) ASSOCIATED MEMORY 実績あり 2011/03/08 2011/03/24 九州工業大学
938 2007JP065085 WO 2008/026413 世界知的所有権機関(WIPO) RECONFIGURATION CONTROLLER FOR OPTICALLY RECONFIGURABLE GATE ARRAY AND ITS METHOD 実績あり 2011/03/08 2011/03/24 九州工業大学
939 2009JP000639 WO 2009/125535 世界知的所有権機関(WIPO) NEEDLE PROBE FOR COOLING OPERATION AND COOLING OPERATION SYSTEM 実績あり 2011/03/08 2011/03/24 九州工業大学
940 2009JP060237 WO 2009/157284 世界知的所有権機関(WIPO) ORGANIC FIELD EFFECT TRANSISTOR 2011/03/08 2011/03/24 九州工業大学
941 2006JP320435 WO 2007/063647 世界知的所有権機関(WIPO) PARTIAL DISCHARGE CHARGE QUANTITY MEASURING METHOD AND DEVICE 実績あり 2011/03/09 2011/03/24 九州工業大学
942 2010JP053577 WO 2010/101224 世界知的所有権機関(WIPO) ORGANIC SEMICONDUCTOR MATERIAL AND ORGANIC THIN FILM TRANSISTOR 2011/04/18 2011/04/20 九州工業大学
943 2005JP015277 WO 2006/030608 世界知的所有権機関(WIPO) TERAHERTZ ELECTROMAGNETIC WAVE RADIATION ELEMENT AND ITS MANUFACTURING METHOD 実績あり 2011/03/09 2011/03/24 九州工業大学
944 2005JP022577 WO 2006/067974 世界知的所有権機関(WIPO) NON-CONTACT CONVEY DEVICE BY SUPERCONDUCTING MAGNETIC LEVITATION 新技術説明会 2011/03/09 2011/03/24 九州工業大学
945 2009JP053157 WO 2010/001632 世界知的所有権機関(WIPO) MICRO-RNA ASSOCIATED WITH RHEUMATOID ARTHRITIS 2011/03/09 2011/03/18 神戸大学
946 2007JP053155 WO 2008/029521 世界知的所有権機関(WIPO) THERMOACOUSTIC DEVICE 2011/03/10 2011/03/22 同志社大学
947 2006JP304961 WO 2006/103910 世界知的所有権機関(WIPO) NONDESTRUCTIVE INSPECTION METHOD AND DEVICE 新技術説明会 2011/03/10 2011/03/24 九州工業大学
948 2006JP313691 WO 2007/013287 世界知的所有権機関(WIPO) VALVELESS MICROPUMP 実績あり 2011/03/10 2011/03/24 九州工業大学
949 2006JP323862 WO 2007/063924 世界知的所有権機関(WIPO) CONVERSION DEVICE, CONVERSION METHOD, PROGRAM, AND RECORDING MEDIUM 実績あり 2011/03/10 2011/05/25 九州工業大学
950 2007JP056149 WO 2007/111288 世界知的所有権機関(WIPO) GENERATING DEVICE, GENERATING METHOD, PROGRAM AND RECORDING MEDIUM 実績あり 2011/03/10 2011/05/25 九州工業大学
951 2008JP061548 WO 2009/001858 世界知的所有権機関(WIPO) WEAR FOR ELECTRICALLY STIMULATING MUSCLES 新技術説明会 実績あり 2011/03/10 2011/03/24 九州工業大学
952 2009JP006016 WO 2010/055649 世界知的所有権機関(WIPO) DEVICE FOR SUPPRESSING SUSTAINED DISCHARGE ON SOLAR BATTERY ARRAY 新技術説明会 2011/03/10 2011/03/24 九州工業大学
953 2009JP063586 WO 2010/021233 世界知的所有権機関(WIPO) GENERATING DEVICE, GENERATING METHOD, AND PROGRAM 実績あり 2011/03/10 2011/03/24 九州工業大学
954 2009JP067325 WO 2010/047219 世界知的所有権機関(WIPO) GENERATION DEVICE, DETERMINATION METHOD, GENERATION METHOD, AND PROGRAM 実績あり 2011/03/10 2011/03/24 九州工業大学
955 2010JP050924 WO 2010/098160 世界知的所有権機関(WIPO) OBJECT MOTION INFERRING DEVICE, OBJECT MOTION INFERRING METHOD, PROGRAM, AND RECORDING MEDIUM 2011/03/10 2011/03/24 九州工業大学
956 2010JP000501 WO 2010/087178 世界知的所有権機関(WIPO) WIND TURBINE GENERATOR 新技術説明会 実績あり 2011/03/14 2011/03/24 九州工業大学
957 2007JP065667 WO 2008/018570 世界知的所有権機関(WIPO) ANTIREFLECTION STRUCTURE, PROCESS FOR PRODUCING THE SAME AND PROCESS FOR PRODUCING OPTICAL MEMBER 2011/03/14 2011/05/23 東京理科大学
958 2008JP054074 WO 2008/108438 世界知的所有権機関(WIPO) SILANE COUPLING AGENTS WITH HEAT RESISTANCE, DURABILITY, RELEASABILITY, AND ANTIFOULING PROPERTY AND PROCESS FOR PRODUCING THESE COMPOUNDS 2011/03/14 2011/03/18 東京理科大学
959 2007JP065086 WO 2008/026414 世界知的所有権機関(WIPO) IMAGE RECOGNITION METHOD, IMAGE RECOGNITION DEVICE, AND IMAGE RECOGNITION PROGRAM 新技術説明会 2011/03/14 2011/03/22 大阪府立大学
960 2007JP073761 WO 2008/069341 世界知的所有権機関(WIPO) SHIP BUOYANCY CONTROL SYSTEM 2011/03/14 2011/03/22 横浜国立大学
961 2008JP054918 WO 2008/120570 世界知的所有権機関(WIPO) CULTURE MEDIUM FOR PRODUCTION OF PROTEIN OR PROLIFERATION OF VIRUS 2011/03/14 2011/03/22 岡山大学
962 2008JP055286 WO 2008/117753 世界知的所有権機関(WIPO) METHOD FOR IMAGING BLOOD VESSEL, SYSTEM FOR IMAGING BLOOD VESSEL AND PROGRAM FOR IMAGING BLOOD VESSEL 2011/03/14 2011/03/22 岐阜大学
963 2008JP051899 WO 2008/093881 世界知的所有権機関(WIPO) METHOD FOR SYNTHESIS OF NITROXYL RADICAL 2011/03/14 2011/03/22 九州大学
964 2008JP056826 WO 2008/123614 世界知的所有権機関(WIPO) METHOD FOR PRODUCTION OF THREE-DIMENSIONAL STRUCTURE OF CELLS 2011/03/14 2011/03/22 九州大学
965 2007JP065720 WO 2008/023582 世界知的所有権機関(WIPO) DEPSIPEPTIDE CONTAINING LACTIC ACID RESIDUE 新技術説明会 2011/03/14 2011/03/22 群馬大学
966 2007JP068970 WO 2008/038766 世界知的所有権機関(WIPO) FUNCTIONAL PEPTIDE HAVING ACTIVITY OF STIMULATING IMMUNE CELL 新技術説明会 2011/03/14 2011/03/22 群馬大学
967 2008JP055650 WO 2008/117813 世界知的所有権機関(WIPO) CHICKEN EMBRYONIC STEM CELL AND METHOD FOR EVALUATION THEREOF 2011/03/14 2011/03/22 広島大学
968 2010JP069614 WO 2011/055751 世界知的所有権機関(WIPO) GAS SENSITIVE MATERIAL COMPRISING MICROCRYSTALLINE SELENIUM AND GAS SENSOR USING SAME 新技術説明会 2011/03/15 2011/05/23 岡山理科大学
969 2010JP069104 WO 2011/058881 世界知的所有権機関(WIPO) APPARATUS FOR PRODUCING ULTRAFINE LIQUID DROPLETS 2011/03/15 2011/08/01 岡山大学
970 2009JP065263 WO 2010/026965 世界知的所有権機関(WIPO) CELL CAPABLE OF REPLICATING NOVEL HCV REPLICON, CELL CAPABLE OF REPLICATING FULL-LENGTH HCV RNA, AND USE OF THOSE CELLS 2011/03/17 2011/03/22 岡山大学
971 2009JP056758 WO 2009/123243 世界知的所有権機関(WIPO) PLASMA GENERATING DEVICE AND METHOD 新技術説明会 2011/03/17 2011/03/22 琉球大学
972 2010JP053624 WO 2010/101239 世界知的所有権機関(WIPO) SOLAR LIGHT (HEAT) ABSORBING MATERIAL, AND HEAT ABSORBER/STORAGE MATERIAL AND SOLAR LIGHT (HEAT) ABSORBER/CONTROL MATERIAL EACH COMPRISING THE SOLAR LIGHT (HEAT) ABSORBING MATERIAL 2011/03/17 2011/03/22 琉球大学
973 2010JP062351 WO 2011/010695 世界知的所有権機関(WIPO) METHOD FOR INCREASING YIELD OF STAPLE FOOD CROP 2011/03/18 2011/03/18 静岡大学
974 2010JP068209 WO 2011046221 世界知的所有権機関(WIPO) INTERFERON-α MODULATOR 2011/03/18 2019/04/22 立命館大学
975 2007JP059457 WO 2007/135850 世界知的所有権機関(WIPO) INFRARED ARRAY SENSOR 2011/03/23 2011/04/26 立命館大学
976 2009JP053291 WO 2010/097894 世界知的所有権機関(WIPO) BIOELECTRIC POTENTIAL ESTIMATING APPARATUS USING IMPEDANCE SWITCHING TYPE MULTIPOINT SURFACE ELECTRODE, AND METHOD THEREFOR 2011/03/23 2011/04/26 立命館大学
977 2010JP054892 WO 2010/107121 世界知的所有権機関(WIPO) NOVEL SOIL DIAGNOSIS METHOD 新技術説明会 2011/03/23 2011/04/26 立命館大学
978 2006JP308748 WO 2006/115271 世界知的所有権機関(WIPO) ORGANIC PHOTOCATALYST 2011/03/23 2011/04/21 弘前大学
979 2005JP020357 WO 2006/082678 世界知的所有権機関(WIPO) OPTICAL INFORMATION RECORDER (REFLECTION HOLOGRAPHIC MEMORY DEVICE) 2011/03/23 2011/04/21 神戸大学
980 2009JP069532 WO 2010/134225 世界知的所有権機関(WIPO) METHOD FOR DETECTION OF INFECTION BY PATHOGENIC NEISSERIA BACTERIA USING PARTIAL SUGAR CHAIN EPITOPE, AND VACCINE AGAINST THE BACTERIA 新技術説明会 2011/03/23 2011/04/21 鳥取大学
981 2010JP055292 WO 2010/110398 世界知的所有権機関(WIPO) RECONFIGURATION CONTROL APPARATUS FOR OPTICALLY RECONFIGURABLE GATE ARRAY AND INFORMATION READ APPARATUS FOR HOLOGRAM MEMORY 新技術説明会 2011/03/24 2011/04/22 静岡大学
982 2008JP002392 WO 2009/031290 世界知的所有権機関(WIPO) ACOUSTIC WAVE DEVICE 新技術説明会 2011/03/24 2011/04/22 静岡大学
983 2010JP059521 WO 2010/140679 世界知的所有権機関(WIPO) PORTABLE FLUORESCENCE MICROSCOPE DEVICE 新技術説明会 2011/03/24 2011/04/22 静岡大学
984 2008JP061429 WO 2009/001805 世界知的所有権機関(WIPO) NOVEL ARTIFICIAL N-LINKED SIALO-SUGAR CHAIN-CONTAINING POLYMER AND METHOD FOR PRODUCING THE SAME 2011/03/24 2011/04/22 静岡大学
985 2008JP054326 WO 2008/111566 世界知的所有権機関(WIPO) EXAMINATION VALUE PREDICTING DEVICE USING ELECTROPHORESIS WAVEFORM, PREDICTING METHOD, AND PREDICTING PROGRAM 2011/03/24 2011/03/24 高知大学
986 2007JP059554 WO 2007/126153 世界知的所有権機関(WIPO) METHOD FOR MANUFACTURING GAS DIFFUSION ELECTRODE, GAS DIFFUSION ELECTRODE, AND MEMBRANE ELECTRODE ASSEMBLY COMPRISING THE GAS DIFFUSION ELECTRODE 2011/03/24 2011/03/24 山梨大学
987 2007JP071961 WO 2008/059812 世界知的所有権機関(WIPO) OPTO-ACOUSTIC MEASUREMENT SYSTEM 新技術説明会 2011/03/24 2011/03/24 鹿児島大学
988 2006JP323504 WO 2007/108173 世界知的所有権機関(WIPO) BIOMOLECULAR ELEMENT, MULTILAYER MOLECULAR THIN FILM OF FATTY ACID AND LIPID TO BE SUPPORT FOR BIOSENSOR MOLECULE AND METHOD FOR PRODUCING THE SAME 2011/03/24 2011/05/24 秋田大学
989 2007JP061464 WO 2008/139638 世界知的所有権機関(WIPO) EXTRACTANT FOR RARE METAL OR PLATINUM-GROUP METAL AND METHOD OF EXTRACTING RARE METAL OR PLATINUM-GROUP METAL 新技術説明会 2011/03/24 2011/03/24 秋田大学
990 2008JP051457 WO 2008/093756 世界知的所有権機関(WIPO) BIOLOGICAL PREPARATION 2011/03/24 2011/03/24 新潟大学
991 2007JP060482 WO 2007/138939 世界知的所有権機関(WIPO) WAVE ACTIVATED POWER GENERATION SYSTEM AND WAVE ACTIVATED POWER GENERATION PLANT 2011/03/24 2011/05/24 神戸大学
992 2008JP000105 WO 2008/108054 世界知的所有権機関(WIPO) ULTRASONOGRAPH 新技術説明会 実績あり 2011/03/28 2011/04/27 山口TLO
993 2010JP066438 WO 2011/046007 世界知的所有権機関(WIPO) PROCESS FOR PREPARATION OF DIETHYLENETRIAMINEPENTAACETIC ACID DERIVATIVES, AND DIETHYLENETRIAMINEPENTAACETIC ACID DERIVATIVES 2011/03/28 2011/05/24 徳島大学
994 2007JP059108 WO 2007/126020 世界知的所有権機関(WIPO) COMPOUND HAVING ACTIVITY OF BLOCKING NMDA RECEPTOR CHANNEL, AND PHARMACEUTICAL AGENT USING THE SAME 2011/03/28 2011/03/28 千葉大学
995 2007JP061108 WO 2007/139192 世界知的所有権機関(WIPO) OPTICAL MEASURING DEVICE, OPTICAL MEASURING METHOD, AND STORAGE MEDIUM STORING OPTICAL MEASUREMENT PROGRAM 2011/03/28 2011/03/28 静岡大学
996 2007JP061633 WO 2007/142327 世界知的所有権機関(WIPO) CONVERTER CIRCUIT, ANALOG/DIGITAL CONVERTER, AND METHOD FOR GENERATING DIGITAL SIGNALS CORRESPONDING TO ANALOG SIGNALS 2011/03/28 2011/03/28 静岡大学
997 2007JP061635 WO 2007/142328 世界知的所有権機関(WIPO) ANALOG DIGITAL CONVERTER, A/D CONVERSION STAGE, METHOD FOR GENERATING DIGITAL SIGNAL CORRESPONDING TO ANALOG SIGNAL, AND METHOD FOR GENERATING SIGNAL INDICATING CONVERSION ERROR IN THE A/D CONVERSION STAGE 2011/03/28 2011/03/28 静岡大学
998 2007JP064986 WO 2008/016049 世界知的所有権機関(WIPO) A/D CONVERTER AND READING CIRCUIT 2011/03/28 2011/03/28 静岡大学
999 2007JP073215 WO 2008/069141 世界知的所有権機関(WIPO) SEMICONDUCTOR DISTANCE MEASURING ELEMENT AND SOLID-STATE IMAGING DEVICE 2011/03/28 2011/03/28 静岡大学
1000 2007JP064047 WO 2008/007796 世界知的所有権機関(WIPO) CONTROLLED-RELEASE DRUG PREPARATION AND METHOD FOR PRODUCING THE SAME 2011/03/28 2011/03/28 筑波大学

(10/48ページ)

PAGE TOP